sensor_id;sensor_type;location;lat;lon;timestamp;pressure;altitude;pressure_sealevel;temperature;humidity
51299;BME280;37382;45.192;9.790;2022-10-16T04:07:32;101675.47;;;17.71;100.00
51299;BME280;37382;45.192;9.790;2022-10-16T04:10:00;101669.28;;;17.75;100.00
51299;BME280;37382;45.192;9.790;2022-10-16T04:12:28;101682.03;;;17.70;100.00
51299;BME280;37382;45.192;9.790;2022-10-16T04:14:55;101687.75;;;17.68;100.00
51299;BME280;37382;45.192;9.790;2022-10-16T04:17:22;101687.25;;;17.46;100.00
51299;BME280;37382;45.192;9.790;2022-10-16T04:19:50;101690.59;;;17.55;100.00
51299;BME280;37382;45.192;9.790;2022-10-16T04:22:18;101685.09;;;17.55;100.00
51299;BME280;37382;45.192;9.790;2022-10-16T04:24:45;101690.31;;;17.63;100.00
51299;BME280;37382;45.192;9.790;2022-10-16T04:27:12;101689.69;;;17.61;100.00
51299;BME280;37382;45.192;9.790;2022-10-16T04:29:39;101688.53;;;17.43;100.00
51299;BME280;37382;45.192;9.790;2022-10-16T04:32:08;101694.72;;;17.39;100.00
51299;BME280;37382;45.192;9.790;2022-10-16T04:34:36;101696.97;;;17.81;100.00
51299;BME280;37382;45.192;9.790;2022-10-16T04:37:05;101701.66;;;17.80;100.00
51299;BME280;37382;45.192;9.790;2022-10-16T04:39:33;101705.69;;;17.77;100.00
51299;BME280;37382;45.192;9.790;2022-10-16T04:42:00;101700.88;;;17.66;100.00
51299;BME280;37382;45.192;9.790;2022-10-16T04:44:27;101707.47;;;17.65;100.00
51299;BME280;37382;45.192;9.790;2022-10-16T04:46:55;101711.97;;;17.53;100.00
51299;BME280;37382;45.192;9.790;2022-10-16T04:49:22;101707.59;;;17.45;100.00
51299;BME280;37382;45.192;9.790;2022-10-16T04:51:50;101712.66;;;17.48;100.00
51299;BME280;37382;45.192;9.790;2022-10-16T04:54:18;101709.00;;;17.86;100.00
51299;BME280;37382;45.192;9.790;2022-10-16T04:56:45;101713.88;;;17.84;100.00
51299;BME280;37382;45.192;9.790;2022-10-16T04:59:18;101707.19;;;17.73;100.00
51299;BME280;37382;45.192;9.790;2022-10-16T05:01:46;101713.31;;;17.37;100.00
51299;BME280;37382;45.192;9.790;2022-10-16T05:04:13;101717.38;;;17.28;100.00
51299;BME280;37382;45.192;9.790;2022-10-16T05:06:42;101719.31;;;17.27;100.00
51299;BME280;37382;45.192;9.790;2022-10-16T05:09:10;101717.22;;;17.22;100.00
51299;BME280;37382;45.192;9.790;2022-10-16T05:11:37;101716.19;;;17.55;100.00
51299;BME280;37382;45.192;9.790;2022-10-16T05:14:05;101715.13;;;17.56;100.00
51299;BME280;37382;45.192;9.790;2022-10-16T05:16:33;101714.75;;;17.46;100.00
51299;BME280;37382;45.192;9.790;2022-10-16T05:19:00;101704.94;;;17.57;100.00
51299;BME280;37382;45.192;9.790;2022-10-16T05:21:48;101712.31;;;17.31;100.00
51299;BME280;37382;45.192;9.790;2022-10-16T05:24:16;101721.34;;;17.38;100.00
51299;BME280;37382;45.192;9.790;2022-10-16T05:26:44;101721.84;;;17.29;100.00
51299;BME280;37382;45.192;9.790;2022-10-16T05:29:11;101721.84;;;17.29;100.00
51299;BME280;37382;45.192;9.790;2022-10-16T05:31:39;101725.25;;;17.24;100.00
51299;BME280;37382;45.192;9.790;2022-10-16T05:34:06;101722.50;;;17.24;100.00
51299;BME280;37382;45.192;9.790;2022-10-16T05:36:34;101727.56;;;17.27;100.00
51299;BME280;37382;45.192;9.790;2022-10-16T05:39:01;101724.97;;;17.39;100.00
51299;BME280;37382;45.192;9.790;2022-10-16T05:41:28;101725.59;;;17.41;100.00
51299;BME280;37382;45.192;9.790;2022-10-16T05:43:56;101733.56;;;17.56;100.00
51299;BME280;37382;45.192;9.790;2022-10-16T05:46:23;101729.53;;;17.52;100.00
51299;BME280;37382;45.192;9.790;2022-10-16T05:48:52;101729.84;;;17.75;100.00
51299;BME280;37382;45.192;9.790;2022-10-16T05:51:20;101729.41;;;17.72;100.00
51299;BME280;37382;45.192;9.790;2022-10-16T05:53:47;101733.50;;;17.63;100.00
51299;BME280;37382;45.192;9.790;2022-10-16T05:56:15;101746.19;;;17.64;100.00
51299;BME280;37382;45.192;9.790;2022-10-16T05:58:43;101750.50;;;17.46;100.00
51299;BME280;37382;45.192;9.790;2022-10-16T06:01:17;101753.88;;;17.55;100.00
51299;BME280;37382;45.192;9.790;2022-10-16T06:03:45;101751.34;;;17.53;100.00
51299;BME280;37382;45.192;9.790;2022-10-16T06:06:15;101755.00;;;17.79;100.00
51299;BME280;37382;45.192;9.790;2022-10-16T06:08:44;101762.66;;;17.70;100.00
51299;BME280;37382;45.192;9.790;2022-10-16T06:11:26;101762.06;;;17.68;100.00
51299;BME280;37382;45.192;9.790;2022-10-16T06:13:56;101768.00;;;17.58;100.00
51299;BME280;37382;45.192;9.790;2022-10-16T06:16:25;101775.59;;;17.70;100.00
51299;BME280;37382;45.192;9.790;2022-10-16T06:18:54;101766.66;;;17.74;100.00
51299;BME280;37382;45.192;9.790;2022-10-16T06:21:25;101778.63;;;18.00;100.00
51299;BME280;37382;45.192;9.790;2022-10-16T06:23:56;101783.94;;;17.88;100.00
51299;BME280;37382;45.192;9.790;2022-10-16T06:26:26;101785.44;;;17.84;100.00
51299;BME280;37382;45.192;9.790;2022-10-16T06:28:55;101789.22;;;17.96;100.00
51299;BME280;37382;45.192;9.790;2022-10-16T06:31:23;101800.19;;;18.03;100.00
51299;BME280;37382;45.192;9.790;2022-10-16T06:33:54;101797.13;;;18.18;100.00
51299;BME280;37382;45.192;9.790;2022-10-16T06:36:23;101801.53;;;18.26;100.00
51299;BME280;37382;45.192;9.790;2022-10-16T06:38:52;101803.34;;;18.07;100.00
51299;BME280;37382;45.192;9.790;2022-10-16T06:41:21;101808.69;;;18.02;100.00
51299;BME280;37382;45.192;9.790;2022-10-16T06:43:49;101813.38;;;17.94;100.00
51299;BME280;37382;45.192;9.790;2022-10-16T06:46:19;101819.03;;;17.61;100.00
51299;BME280;37382;45.192;9.790;2022-10-16T06:48:47;101815.66;;;17.59;100.00
51299;BME280;37382;45.192;9.790;2022-10-16T06:51:20;101821.44;;;17.83;100.00
51299;BME280;37382;45.192;9.790;2022-10-16T06:53:53;101818.59;;;18.09;100.00
51299;BME280;37382;45.192;9.790;2022-10-16T06:56:36;101824.69;;;18.18;100.00
51299;BME280;37382;45.192;9.790;2022-10-16T06:59:04;101837.88;;;18.03;100.00
51299;BME280;37382;45.192;9.790;2022-10-16T07:01:32;101842.16;;;17.99;100.00
51299;BME280;37382;45.192;9.790;2022-10-16T07:04:01;101844.16;;;17.71;100.00
51299;BME280;37382;45.192;9.790;2022-10-16T07:06:31;101848.63;;;17.72;100.00
51299;BME280;37382;45.192;9.790;2022-10-16T07:09:02;101849.84;;;17.76;100.00
51299;BME280;37382;45.192;9.790;2022-10-16T07:11:30;101859.56;;;17.92;100.00
51299;BME280;37382;45.192;9.790;2022-10-16T07:13:58;101864.41;;;17.90;100.00
51299;BME280;37382;45.192;9.790;2022-10-16T07:16:27;101865.63;;;17.49;100.00
51299;BME280;37382;45.192;9.790;2022-10-16T07:18:56;101866.91;;;17.47;100.00
51299;BME280;37382;45.192;9.790;2022-10-16T07:21:32;101868.97;;;17.58;100.00
51299;BME280;37382;45.192;9.790;2022-10-16T07:24:05;101868.44;;;17.94;100.00
51299;BME280;37382;45.192;9.790;2022-10-16T07:26:36;101864.97;;;18.12;100.00
51299;BME280;37382;45.192;9.790;2022-10-16T07:29:04;101877.06;;;18.05;100.00
51299;BME280;37382;45.192;9.790;2022-10-16T07:31:31;101884.06;;;18.07;100.00
51299;BME280;37382;45.192;9.790;2022-10-16T07:34:00;101881.69;;;18.11;100.00
51299;BME280;37382;45.192;9.790;2022-10-16T07:36:28;101884.06;;;18.07;100.00
51299;BME280;37382;45.192;9.790;2022-10-16T07:38:55;101887.59;;;18.14;100.00
51299;BME280;37382;45.192;9.790;2022-10-16T07:41:27;101885.81;;;18.59;100.00
51299;BME280;37382;45.192;9.790;2022-10-16T07:43:56;101883.78;;;19.05;100.00
51299;BME280;37382;45.192;9.790;2022-10-16T07:46:27;101878.22;;;19.11;100.00
51299;BME280;37382;45.192;9.790;2022-10-16T07:48:55;101886.53;;;19.05;100.00
51299;BME280;37382;45.192;9.790;2022-10-16T07:51:25;101876.16;;;19.25;100.00
51299;BME280;37382;45.192;9.790;2022-10-16T07:53:52;101886.06;;;19.33;100.00
51299;BME280;37382;45.192;9.790;2022-10-16T07:56:21;101884.69;;;19.42;100.00
51299;BME280;37382;45.192;9.790;2022-10-16T07:58:49;101890.84;;;19.63;100.00
51299;BME280;37382;45.192;9.790;2022-10-16T08:01:18;101888.22;;;19.68;100.00
51299;BME280;37382;45.192;9.790;2022-10-16T08:03:48;101893.22;;;19.96;100.00
51299;BME280;37382;45.192;9.790;2022-10-16T08:06:17;101897.47;;;20.11;100.00
51299;BME280;37382;45.192;9.790;2022-10-16T08:08:50;101898.00;;;20.19;100.00
51299;BME280;37382;45.192;9.790;2022-10-16T08:11:19;101890.00;;;20.41;100.00
51299;BME280;37382;45.192;9.790;2022-10-16T08:13:46;101887.06;;;20.55;100.00
51299;BME280;37382;45.192;9.790;2022-10-16T08:16:14;101894.19;;;20.32;100.00
51299;BME280;37382;45.192;9.790;2022-10-16T08:18:41;101891.50;;;20.56;100.00
51299;BME280;37382;45.192;9.790;2022-10-16T08:21:17;101896.28;;;20.49;100.00
51299;BME280;37382;45.192;9.790;2022-10-16T08:23:48;101891.97;;;20.65;100.00
51299;BME280;37382;45.192;9.790;2022-10-16T08:26:25;101902.31;;;20.57;100.00
51299;BME280;37382;45.192;9.790;2022-10-16T08:28:54;101895.16;;;20.68;100.00
51299;BME280;37382;45.192;9.790;2022-10-16T08:31:22;101893.50;;;20.79;100.00
51299;BME280;37382;45.192;9.790;2022-10-16T08:33:49;101890.63;;;20.74;100.00
51299;BME280;37382;45.192;9.790;2022-10-16T08:36:18;101891.75;;;20.54;100.00
51299;BME280;37382;45.192;9.790;2022-10-16T08:38:49;101904.28;;;20.69;100.00
51299;BME280;37382;45.192;9.790;2022-10-16T08:47:17;101905.31;;;20.86;100.00
51299;BME280;37382;45.192;9.790;2022-10-16T08:50:10;101902.53;;;20.98;100.00
51299;BME280;37382;45.192;9.790;2022-10-16T08:52:41;101903.75;;;21.26;100.00
51299;BME280;37382;45.192;9.790;2022-10-16T08:57:55;101910.13;;;21.38;100.00
51299;BME280;37382;45.192;9.790;2022-10-16T09:00:24;101908.91;;;21.34;100.00
51299;BME280;37382;45.192;9.790;2022-10-16T09:05:44;101910.50;;;21.54;100.00
51299;BME280;37382;45.192;9.790;2022-10-16T09:10:58;101913.13;;;21.13;100.00
51299;BME280;37382;45.192;9.790;2022-10-16T09:16:44;101915.88;;;21.01;100.00
51299;BME280;37382;45.192;9.790;2022-10-16T09:19:37;101916.88;;;21.19;100.00
51299;BME280;37382;45.192;9.790;2022-10-16T09:22:13;101918.28;;;21.33;100.00
51299;BME280;37382;45.192;9.790;2022-10-16T09:24:41;101917.59;;;21.61;100.00
51299;BME280;37382;45.192;9.790;2022-10-16T09:27:13;101917.56;;;21.38;100.00
51299;BME280;37382;45.192;9.790;2022-10-16T09:29:41;101918.56;;;21.67;100.00
51299;BME280;37382;45.192;9.790;2022-10-16T09:32:15;101915.88;;;21.72;100.00
51299;BME280;37382;45.192;9.790;2022-10-16T09:34:53;101920.41;;;21.90;100.00
51299;BME280;37382;45.192;9.790;2022-10-16T09:37:23;101918.59;;;21.96;100.00
51299;BME280;37382;45.192;9.790;2022-10-16T09:39:54;101917.47;;;22.09;100.00
51299;BME280;37382;45.192;9.790;2022-10-16T09:42:31;101920.72;;;22.06;100.00
51299;BME280;37382;45.192;9.790;2022-10-16T09:45:01;101915.22;;;22.34;100.00
51299;BME280;37382;45.192;9.790;2022-10-16T09:47:30;101915.16;;;22.17;100.00
51299;BME280;37382;45.192;9.790;2022-10-16T09:50:04;101911.22;;;22.42;100.00
51299;BME280;37382;45.192;9.790;2022-10-16T09:52:33;101918.22;;;22.79;100.00
51299;BME280;37382;45.192;9.790;2022-10-16T09:55:15;101921.00;;;22.62;100.00
51299;BME280;37382;45.192;9.790;2022-10-16T09:57:54;101912.09;;;22.77;100.00
51299;BME280;37382;45.192;9.790;2022-10-16T10:00:23;101907.22;;;22.84;100.00
51299;BME280;37382;45.192;9.790;2022-10-16T10:02:53;101913.88;;;22.83;100.00
51299;BME280;37382;45.192;9.790;2022-10-16T10:05:27;101912.94;;;22.94;100.00
51299;BME280;37382;45.192;9.790;2022-10-16T10:08:05;101915.97;;;23.09;100.00
51299;BME280;37382;45.192;9.790;2022-10-16T10:10:42;101914.38;;;23.31;100.00
51299;BME280;37382;45.192;9.790;2022-10-16T10:13:20;101912.41;;;23.31;100.00
51299;BME280;37382;45.192;9.790;2022-10-16T10:15:48;101912.34;;;23.26;100.00
51299;BME280;37382;45.192;9.790;2022-10-16T10:18:20;101906.72;;;23.60;100.00
51299;BME280;37382;45.192;9.790;2022-10-16T10:21:03;101915.31;;;23.58;100.00
51299;BME280;37382;45.192;9.790;2022-10-16T10:23:33;101907.97;;;22.62;100.00
51299;BME280;37382;45.192;9.790;2022-10-16T10:26:20;101911.84;;;23.29;100.00
51299;BME280;37382;45.192;9.790;2022-10-16T10:29:06;101911.91;;;23.51;100.00
51299;BME280;37382;45.192;9.790;2022-10-16T10:32:00;101908.50;;;23.49;100.00
51299;BME280;37382;45.192;9.790;2022-10-16T10:37:37;101905.53;;;23.95;100.00
51299;BME280;37382;45.192;9.790;2022-10-16T10:40:38;101912.94;;;24.11;100.00
51299;BME280;37382;45.192;9.790;2022-10-16T10:45:52;101898.41;;;24.04;100.00
51299;BME280;37382;45.192;9.790;2022-10-16T10:54:20;101894.50;;;24.27;100.00
51299;BME280;37382;45.192;9.790;2022-10-16T10:57:10;101895.13;;;24.62;100.00
51299;BME280;37382;45.192;9.790;2022-10-16T11:05:43;101888.16;;;24.59;100.00
51299;BME280;37382;45.192;9.790;2022-10-16T11:11:01;101890.44;;;24.13;100.00
51299;BME280;37382;45.192;9.790;2022-10-16T11:13:42;101889.59;;;24.12;100.00
51299;BME280;37382;45.192;9.790;2022-10-16T11:16:17;101882.22;;;24.23;100.00
51299;BME280;37382;45.192;9.790;2022-10-16T11:19:05;101894.44;;;24.22;100.00
51299;BME280;37382;45.192;9.790;2022-10-16T11:21:43;101886.31;;;24.43;100.00
51299;BME280;37382;45.192;9.790;2022-10-16T11:24:35;101888.81;;;24.44;100.00
51299;BME280;37382;45.192;9.790;2022-10-16T11:27:08;101886.22;;;24.60;100.00
51299;BME280;37382;45.192;9.790;2022-10-16T11:29:46;101892.94;;;24.37;100.00
51299;BME280;37382;45.192;9.790;2022-10-16T11:32:35;101886.69;;;24.51;100.00
51299;BME280;37382;45.192;9.790;2022-10-16T11:35:25;101885.63;;;24.03;100.00
51299;BME280;37382;45.192;9.790;2022-10-16T11:37:58;101894.88;;;24.09;100.00
51299;BME280;37382;45.192;9.790;2022-10-16T11:40:31;101881.47;;;24.60;100.00
51299;BME280;37382;45.192;9.790;2022-10-16T11:43:12;101881.69;;;24.54;100.00
51299;BME280;37382;45.192;9.790;2022-10-16T11:45:48;101883.38;;;24.55;100.00
51299;BME280;37382;45.192;9.790;2022-10-16T11:50:53;101869.19;;;24.56;100.00
51299;BME280;37382;45.192;9.790;2022-10-16T11:56:00;101872.63;;;25.44;100.00
51299;BME280;37382;45.192;9.790;2022-10-16T11:58:55;101861.81;;;25.57;100.00
51299;BME280;37382;45.192;9.790;2022-10-16T12:04:36;101863.25;;;24.75;100.00
51299;BME280;37382;45.192;9.790;2022-10-16T12:07:17;101868.84;;;25.22;100.00
51299;BME280;37382;45.192;9.790;2022-10-16T12:09:47;101861.47;;;24.96;100.00
51299;BME280;37382;45.192;9.790;2022-10-16T12:12:37;101868.03;;;24.52;100.00
51299;BME280;37382;45.192;9.790;2022-10-16T12:17:54;101868.66;;;24.92;100.00
51299;BME280;37382;45.192;9.790;2022-10-16T12:20:27;101861.28;;;25.13;100.00
51299;BME280;37382;45.192;9.790;2022-10-16T12:23:02;101866.34;;;25.21;100.00
51299;BME280;37382;45.192;9.790;2022-10-16T12:25:39;101865.69;;;25.46;98.90
51299;BME280;37382;45.192;9.790;2022-10-16T12:28:22;101861.06;;;25.78;97.93
51299;BME280;37382;45.192;9.790;2022-10-16T12:30:55;101861.38;;;25.81;95.43
51299;BME280;37382;45.192;9.790;2022-10-16T12:33:31;101860.56;;;25.96;93.70
51299;BME280;37382;45.192;9.790;2022-10-16T12:36:04;101855.31;;;26.00;93.15
51299;BME280;37382;45.192;9.790;2022-10-16T12:38:50;101864.03;;;26.44;90.13
51299;BME280;37382;45.192;9.790;2022-10-16T12:43:54;101860.16;;;26.76;88.70
51299;BME280;37382;45.192;9.790;2022-10-16T12:46:33;101856.78;;;26.54;82.76
51299;BME280;37382;45.192;9.790;2022-10-16T12:51:42;101862.06;;;26.30;84.35
51299;BME280;37382;45.192;9.790;2022-10-16T12:54:30;101861.84;;;26.67;85.92
51299;BME280;37382;45.192;9.790;2022-10-16T12:57:13;101864.91;;;26.86;83.34
51299;BME280;37382;45.192;9.790;2022-10-16T13:00:04;101862.13;;;26.86;83.06
51299;BME280;37382;45.192;9.790;2022-10-16T13:06:01;101863.16;;;27.21;79.60
51299;BME280;37382;45.192;9.790;2022-10-16T13:14:06;101862.03;;;26.04;81.82
51299;BME280;37382;45.192;9.790;2022-10-16T13:19:45;101866.81;;;26.55;79.14
51299;BME280;37382;45.192;9.790;2022-10-16T13:22:23;101859.88;;;26.98;78.94
51299;BME280;37382;45.192;9.790;2022-10-16T13:30:43;101836.53;;;31.17;60.92
51299;BME280;37382;45.192;9.790;2022-10-16T13:33:32;101830.69;;;33.28;50.91
51299;BME280;37382;45.192;9.790;2022-10-16T13:36:00;101830.00;;;33.80;49.39
51299;BME280;37382;45.192;9.790;2022-10-16T13:38:37;101825.00;;;35.80;44.27
51299;BME280;37382;45.192;9.790;2022-10-16T13:41:14;101826.16;;;36.00;42.31
51299;BME280;37382;45.192;9.790;2022-10-16T13:43:45;101816.13;;;37.40;39.11
51299;BME280;37382;45.192;9.790;2022-10-16T13:46:20;101827.84;;;35.71;39.74
51299;BME280;37382;45.192;9.790;2022-10-16T13:49:03;101828.53;;;33.91;42.96
51299;BME280;37382;45.192;9.790;2022-10-16T13:51:31;101815.16;;;33.57;43.28
51299;BME280;37382;45.192;9.790;2022-10-16T13:53:59;101814.78;;;35.58;40.23
51299;BME280;37382;45.192;9.790;2022-10-16T13:56:29;101814.25;;;36.28;38.53
51299;BME280;37382;45.192;9.790;2022-10-16T13:59:04;101810.88;;;35.41;38.12
51299;BME280;37382;45.192;9.790;2022-10-16T14:01:34;101797.06;;;34.63;39.39
51299;BME280;37382;45.192;9.790;2022-10-16T14:04:05;101815.41;;;35.04;37.24
51299;BME280;37382;45.192;9.790;2022-10-16T14:06:35;101816.56;;;33.94;38.48
51299;BME280;37382;45.192;9.790;2022-10-16T14:09:06;101800.47;;;33.20;39.39
51299;BME280;37382;45.192;9.790;2022-10-16T14:11:43;101805.72;;;35.05;38.23
51299;BME280;37382;45.192;9.790;2022-10-16T14:14:12;101821.03;;;34.04;39.40
51299;BME280;37382;45.192;9.790;2022-10-16T14:16:42;101804.09;;;33.78;41.20
51299;BME280;37382;45.192;9.790;2022-10-16T14:19:27;101794.06;;;33.54;39.67
51299;BME280;37382;45.192;9.790;2022-10-16T14:25:24;101828.00;;;34.15;38.60
51299;BME280;37382;45.192;9.790;2022-10-16T14:30:51;101857.38;;;31.72;44.17
51299;BME280;37382;45.192;9.790;2022-10-16T14:36:03;101850.97;;;29.69;46.87
51299;BME280;37382;45.192;9.790;2022-10-16T14:38:32;101847.09;;;28.63;50.82
51299;BME280;37382;45.192;9.790;2022-10-16T14:41:01;101860.31;;;27.47;56.63
51299;BME280;37382;45.192;9.790;2022-10-16T14:43:35;101863.63;;;27.59;55.97
51299;BME280;37382;45.192;9.790;2022-10-16T14:46:09;101865.38;;;27.29;55.91
51299;BME280;37382;45.192;9.790;2022-10-16T14:48:43;101862.63;;;26.37;63.13
51299;BME280;37382;45.192;9.790;2022-10-16T14:51:16;101874.09;;;26.61;61.01
51299;BME280;37382;45.192;9.790;2022-10-16T14:53:44;101869.66;;;26.75;59.74
51299;BME280;37382;45.192;9.790;2022-10-16T14:56:16;101872.69;;;26.48;61.07
51299;BME280;37382;45.192;9.790;2022-10-16T14:58:45;101877.13;;;26.34;62.02
51299;BME280;37382;45.192;9.790;2022-10-16T15:01:12;101880.72;;;26.08;66.71
51299;BME280;37382;45.192;9.790;2022-10-16T15:03:40;101870.59;;;25.97;65.04
51299;BME280;37382;45.192;9.790;2022-10-16T15:06:11;101873.34;;;25.87;67.36
51299;BME280;37382;45.192;9.790;2022-10-16T15:08:39;101881.81;;;26.02;69.28
51299;BME280;37382;45.192;9.790;2022-10-16T15:11:15;101889.09;;;25.50;75.20
51299;BME280;37382;45.192;9.790;2022-10-16T15:13:43;101877.09;;;26.18;71.72
51299;BME280;37382;45.192;9.790;2022-10-16T15:16:14;101878.81;;;28.48;64.03
51299;BME280;37382;45.192;9.790;2022-10-16T15:18:42;101880.41;;;29.23;58.72
51299;BME280;37382;45.192;9.790;2022-10-16T15:21:23;101881.72;;;30.36;54.64
51299;BME280;37382;45.192;9.790;2022-10-16T15:23:51;101888.91;;;29.42;55.27
51299;BME280;37382;45.192;9.790;2022-10-16T15:26:18;101888.94;;;29.61;55.13
51299;BME280;37382;45.192;9.790;2022-10-16T15:28:46;101884.28;;;30.71;53.19
51299;BME280;37382;45.192;9.790;2022-10-16T15:31:14;101885.06;;;31.37;51.29
51299;BME280;37382;45.192;9.790;2022-10-16T15:33:41;101887.22;;;30.46;53.53
51299;BME280;37382;45.192;9.790;2022-10-16T15:36:09;101881.69;;;29.36;55.77
51299;BME280;37382;45.192;9.790;2022-10-16T15:38:36;101887.72;;;29.43;55.68
51299;BME280;37382;45.192;9.790;2022-10-16T15:41:04;101891.31;;;29.24;56.48
51299;BME280;37382;45.192;9.790;2022-10-16T15:43:31;101882.41;;;28.88;58.71
51299;BME280;37382;45.192;9.790;2022-10-16T15:46:00;101891.34;;;28.50;60.55
51299;BME280;37382;45.192;9.790;2022-10-16T15:48:29;101891.38;;;27.35;63.14
51299;BME280;37382;45.192;9.790;2022-10-16T15:50:56;101898.94;;;26.68;66.63
51299;BME280;37382;45.192;9.790;2022-10-16T15:53:24;101896.19;;;26.73;68.86
51299;BME280;37382;45.192;9.790;2022-10-16T15:55:52;101897.81;;;26.63;70.22
51299;BME280;37382;45.192;9.790;2022-10-16T15:58:19;101902.06;;;25.82;73.43
51299;BME280;37382;45.192;9.790;2022-10-16T16:00:56;101906.06;;;25.44;79.70
51299;BME280;37382;45.192;9.790;2022-10-16T16:03:24;101897.25;;;25.19;82.21
51299;BME280;37382;45.192;9.790;2022-10-16T16:05:51;101902.06;;;24.92;83.41
51299;BME280;37382;45.192;9.790;2022-10-16T16:08:20;101901.41;;;24.25;92.20
51299;BME280;37382;45.192;9.790;2022-10-16T16:10:58;101908.38;;;24.00;100.00
51299;BME280;37382;45.192;9.790;2022-10-16T16:13:26;101901.53;;;23.86;100.00
51299;BME280;37382;45.192;9.790;2022-10-16T16:15:54;101908.53;;;23.71;100.00
51299;BME280;37382;45.192;9.790;2022-10-16T16:18:21;101913.03;;;23.55;100.00
51299;BME280;37382;45.192;9.790;2022-10-16T16:20:51;101917.84;;;23.21;100.00
51299;BME280;37382;45.192;9.790;2022-10-16T16:23:19;101915.97;;;23.09;100.00
51299;BME280;37382;45.192;9.790;2022-10-16T16:26:03;101918.47;;;22.77;100.00
51299;BME280;37382;45.192;9.790;2022-10-16T16:28:31;101921.81;;;22.62;100.00
51299;BME280;37382;45.192;9.790;2022-10-16T16:30:59;101923.75;;;22.45;100.00
51299;BME280;37382;45.192;9.790;2022-10-16T16:33:26;101918.88;;;22.23;100.00
51299;BME280;37382;45.192;9.790;2022-10-16T16:36:03;101930.09;;;22.16;100.00
51299;BME280;37382;45.192;9.790;2022-10-16T16:38:32;101922.50;;;22.12;100.00
51299;BME280;37382;45.192;9.790;2022-10-16T16:41:11;101925.22;;;21.95;100.00
51299;BME280;37382;45.192;9.790;2022-10-16T16:43:39;101928.16;;;21.88;100.00
51299;BME280;37382;45.192;9.790;2022-10-16T16:46:08;101936.31;;;21.83;100.00
51299;BME280;37382;45.192;9.790;2022-10-16T16:48:35;101945.28;;;21.61;100.00
51299;BME280;37382;45.192;9.790;2022-10-16T16:51:08;101937.69;;;21.45;100.00
51299;BME280;37382;45.192;9.790;2022-10-16T16:53:36;101943.34;;;21.38;100.00
51299;BME280;37382;45.192;9.790;2022-10-16T16:56:04;101945.72;;;21.35;100.00
51299;BME280;37382;45.192;9.790;2022-10-16T16:58:33;101955.84;;;21.17;100.00
51299;BME280;37382;45.192;9.790;2022-10-16T17:01:01;101958.47;;;21.00;100.00
51299;BME280;37382;45.192;9.790;2022-10-16T17:03:51;101965.56;;;20.96;100.00
51299;BME280;37382;45.192;9.790;2022-10-16T17:06:21;101961.47;;;20.87;100.00
51299;BME280;37382;45.192;9.790;2022-10-16T17:08:50;101968.72;;;20.69;100.00
51299;BME280;37382;45.192;9.790;2022-10-16T17:11:23;101977.09;;;20.62;100.00
51299;BME280;37382;45.192;9.790;2022-10-16T17:13:51;101983.22;;;20.53;100.00
51299;BME280;37382;45.192;9.790;2022-10-16T17:16:31;101988.91;;;20.39;100.00
51299;BME280;37382;45.192;9.790;2022-10-16T17:19:07;101989.38;;;20.36;100.00
51299;BME280;37382;45.192;9.790;2022-10-16T17:21:36;101995.59;;;20.32;100.00
51299;BME280;37382;45.192;9.790;2022-10-16T17:24:04;102005.44;;;20.27;100.00
51299;BME280;37382;45.192;9.790;2022-10-16T17:26:32;102006.88;;;20.30;100.00
51299;BME280;37382;45.192;9.790;2022-10-16T17:29:01;101998.66;;;20.23;100.00
51299;BME280;37382;45.192;9.790;2022-10-16T17:31:35;102007.41;;;20.20;100.00
51299;BME280;37382;45.192;9.790;2022-10-16T17:34:06;102012.13;;;20.20;100.00
51299;BME280;37382;45.192;9.790;2022-10-16T17:36:35;102009.22;;;20.15;100.00
51299;BME280;37382;45.192;9.790;2022-10-16T17:39:07;102013.03;;;20.14;100.00
51299;BME280;37382;45.192;9.790;2022-10-16T17:41:36;102015.91;;;20.07;100.00
51299;BME280;37382;45.192;9.790;2022-10-16T17:44:04;102025.56;;;19.98;100.00
51299;BME280;37382;45.192;9.790;2022-10-16T17:46:32;102027.38;;;19.85;100.00
51299;BME280;37382;45.192;9.790;2022-10-16T17:49:06;102040.47;;;19.90;100.00
51299;BME280;37382;45.192;9.790;2022-10-16T17:51:35;102036.50;;;19.86;100.00
51299;BME280;37382;45.192;9.790;2022-10-16T17:54:03;102040.56;;;19.83;100.00
51299;BME280;37382;45.192;9.790;2022-10-16T17:56:31;102049.09;;;19.82;100.00
51299;BME280;37382;45.192;9.790;2022-10-16T17:59:00;102045.72;;;19.73;100.00
51299;BME280;37382;45.192;9.790;2022-10-16T18:01:30;102054.91;;;19.67;100.00
51299;BME280;37382;45.192;9.790;2022-10-16T18:04:07;102054.91;;;19.67;100.00
51299;BME280;37382;45.192;9.790;2022-10-16T18:06:36;102062.44;;;19.60;100.00
51299;BME280;37382;45.192;9.790;2022-10-16T18:09:05;102061.19;;;19.55;100.00
51299;BME280;37382;45.192;9.790;2022-10-16T18:11:33;102069.06;;;19.52;100.00
51299;BME280;37382;45.192;9.790;2022-10-16T18:14:02;102071.66;;;19.47;100.00
51299;BME280;37382;45.192;9.790;2022-10-16T18:16:30;102073.63;;;19.40;100.00
51299;BME280;37382;45.192;9.790;2022-10-16T18:18:59;102076.44;;;19.33;100.00
51299;BME280;37382;45.192;9.790;2022-10-16T18:21:26;102085.09;;;19.36;100.00
51299;BME280;37382;45.192;9.790;2022-10-16T18:23:56;102080.47;;;19.30;100.00
51299;BME280;37382;45.192;9.790;2022-10-16T18:26:24;102088.38;;;19.27;100.00
51299;BME280;37382;45.192;9.790;2022-10-16T18:28:54;102078.63;;;19.24;100.00
51299;BME280;37382;45.192;9.790;2022-10-16T18:31:22;102084.81;;;19.19;100.00
51299;BME280;37382;45.192;9.790;2022-10-16T18:33:52;102080.19;;;19.13;100.00